sensor_id;sensor_type;location;lat;lon;timestamp;P1;durP1;ratioP1;P2;durP2;ratioP2
12038;SDS011;6080;48.818;9.526;2023-02-28T04:00:40;7.67;;;7.03;;
12038;SDS011;6080;48.818;9.526;2023-02-28T04:03:10;10.00;;;8.50;;
12038;SDS011;6080;48.818;9.526;2023-02-28T04:05:50;10.87;;;9.77;;
12038;SDS011;6080;48.818;9.526;2023-02-28T04:08:18;9.53;;;8.73;;
12038;SDS011;6080;48.818;9.526;2023-02-28T04:10:44;8.47;;;7.73;;
12038;SDS011;6080;48.818;9.526;2023-02-28T04:13:16;9.23;;;8.33;;
12038;SDS011;6080;48.818;9.526;2023-02-28T04:15:41;9.50;;;8.77;;
12038;SDS011;6080;48.818;9.526;2023-02-28T04:18:10;8.43;;;7.83;;
12038;SDS011;6080;48.818;9.526;2023-02-28T04:20:38;10.40;;;8.70;;
12038;SDS011;6080;48.818;9.526;2023-02-28T04:23:05;8.50;;;7.73;;
12038;SDS011;6080;48.818;9.526;2023-02-28T04:25:33;9.30;;;8.43;;
12038;SDS011;6080;48.818;9.526;2023-02-28T04:27:59;7.07;;;6.67;;
12038;SDS011;6080;48.818;9.526;2023-02-28T04:30:25;9.63;;;8.90;;
12038;SDS011;6080;48.818;9.526;2023-02-28T04:32:54;7.57;;;6.90;;
12038;SDS011;6080;48.818;9.526;2023-02-28T04:35:20;10.43;;;8.50;;
12038;SDS011;6080;48.818;9.526;2023-02-28T04:37:46;10.00;;;8.27;;
12038;SDS011;6080;48.818;9.526;2023-02-28T04:40:12;14.83;;;9.47;;
12038;SDS011;6080;48.818;9.526;2023-02-28T04:42:38;8.47;;;7.77;;
12038;SDS011;6080;48.818;9.526;2023-02-28T04:45:04;8.43;;;7.80;;
12038;SDS011;6080;48.818;9.526;2023-02-28T04:47:30;8.33;;;7.73;;
12038;SDS011;6080;48.818;9.526;2023-02-28T04:49:56;8.90;;;8.30;;
12038;SDS011;6080;48.818;9.526;2023-02-28T04:52:22;10.67;;;9.30;;
12038;SDS011;6080;48.818;9.526;2023-02-28T04:54:47;8.47;;;7.67;;
12038;SDS011;6080;48.818;9.526;2023-02-28T04:57:14;8.53;;;6.77;;
12038;SDS011;6080;48.818;9.526;2023-02-28T04:59:40;10.00;;;9.17;;
12038;SDS011;6080;48.818;9.526;2023-02-28T05:02:06;7.97;;;7.37;;
12038;SDS011;6080;48.818;9.526;2023-02-28T05:04:32;9.83;;;9.03;;
12038;SDS011;6080;48.818;9.526;2023-02-28T05:06:59;7.97;;;7.43;;
12038;SDS011;6080;48.818;9.526;2023-02-28T05:09:26;10.80;;;9.70;;
12038;SDS011;6080;48.818;9.526;2023-02-28T05:11:53;10.67;;;9.67;;
12038;SDS011;6080;48.818;9.526;2023-02-28T05:14:19;9.07;;;8.33;;
12038;SDS011;6080;48.818;9.526;2023-02-28T05:16:45;8.40;;;7.67;;
12038;SDS011;6080;48.818;9.526;2023-02-28T05:19:11;10.17;;;8.47;;
12038;SDS011;6080;48.818;9.526;2023-02-28T05:24:04;12.87;;;12.07;;
12038;SDS011;6080;48.818;9.526;2023-02-28T05:26:36;10.30;;;9.40;;
12038;SDS011;6080;48.818;9.526;2023-02-28T05:29:04;9.93;;;9.00;;
12038;SDS011;6080;48.818;9.526;2023-02-28T05:31:30;11.13;;;10.03;;
12038;SDS011;6080;48.818;9.526;2023-02-28T05:33:56;10.33;;;9.37;;
12038;SDS011;6080;48.818;9.526;2023-02-28T05:36:22;10.50;;;9.60;;
12038;SDS011;6080;48.818;9.526;2023-02-28T05:38:49;8.90;;;8.30;;
12038;SDS011;6080;48.818;9.526;2023-02-28T05:41:16;10.83;;;10.03;;
12038;SDS011;6080;48.818;9.526;2023-02-28T05:43:42;9.63;;;8.77;;
12038;SDS011;6080;48.818;9.526;2023-02-28T05:46:09;9.10;;;8.40;;
12038;SDS011;6080;48.818;9.526;2023-02-28T05:48:37;8.73;;;8.03;;
12038;SDS011;6080;48.818;9.526;2023-02-28T05:51:04;38.40;;;35.97;;
12038;SDS011;6080;48.818;9.526;2023-02-28T05:53:30;10.00;;;9.10;;
12038;SDS011;6080;48.818;9.526;2023-02-28T05:55:56;10.73;;;9.80;;
12038;SDS011;6080;48.818;9.526;2023-02-28T05:58:23;8.97;;;8.23;;
12038;SDS011;6080;48.818;9.526;2023-02-28T06:00:50;9.93;;;9.27;;
12038;SDS011;6080;48.818;9.526;2023-02-28T06:03:16;10.47;;;9.53;;
12038;SDS011;6080;48.818;9.526;2023-02-28T06:05:42;10.17;;;9.23;;
12038;SDS011;6080;48.818;9.526;2023-02-28T06:08:07;10.57;;;9.50;;
12038;SDS011;6080;48.818;9.526;2023-02-28T06:10:36;14.37;;;13.37;;
12038;SDS011;6080;48.818;9.526;2023-02-28T06:13:02;9.93;;;9.13;;
12038;SDS011;6080;48.818;9.526;2023-02-28T06:15:29;9.43;;;8.80;;
12038;SDS011;6080;48.818;9.526;2023-02-28T06:17:56;11.13;;;10.23;;
12038;SDS011;6080;48.818;9.526;2023-02-28T06:20:22;9.70;;;9.10;;
12038;SDS011;6080;48.818;9.526;2023-02-28T06:22:48;12.10;;;10.90;;
12038;SDS011;6080;48.818;9.526;2023-02-28T06:25:16;8.47;;;7.97;;
12038;SDS011;6080;48.818;9.526;2023-02-28T06:27:42;9.47;;;8.67;;
12038;SDS011;6080;48.818;9.526;2023-02-28T06:30:09;10.93;;;10.03;;
12038;SDS011;6080;48.818;9.526;2023-02-28T06:32:36;11.07;;;10.17;;
12038;SDS011;6080;48.818;9.526;2023-02-28T06:35:02;9.93;;;9.10;;
12038;SDS011;6080;48.818;9.526;2023-02-28T06:37:28;11.27;;;10.23;;
12038;SDS011;6080;48.818;9.526;2023-02-28T06:39:55;11.17;;;10.13;;
12038;SDS011;6080;48.818;9.526;2023-02-28T06:42:22;10.47;;;9.57;;
12038;SDS011;6080;48.818;9.526;2023-02-28T06:44:57;15.37;;;11.50;;
12038;SDS011;6080;48.818;9.526;2023-02-28T06:47:23;11.13;;;10.23;;
12038;SDS011;6080;48.818;9.526;2023-02-28T06:49:49;10.60;;;9.70;;
12038;SDS011;6080;48.818;9.526;2023-02-28T06:52:15;11.93;;;10.90;;
12038;SDS011;6080;48.818;9.526;2023-02-28T06:54:41;13.27;;;10.73;;
12038;SDS011;6080;48.818;9.526;2023-02-28T06:57:07;12.00;;;10.97;;
12038;SDS011;6080;48.818;9.526;2023-02-28T06:59:33;10.17;;;9.23;;
12038;SDS011;6080;48.818;9.526;2023-02-28T07:02:00;9.57;;;8.73;;
12038;SDS011;6080;48.818;9.526;2023-02-28T07:04:27;10.53;;;9.53;;
12038;SDS011;6080;48.818;9.526;2023-02-28T07:06:54;16.43;;;10.83;;
12038;SDS011;6080;48.818;9.526;2023-02-28T07:09:22;11.03;;;9.93;;
12038;SDS011;6080;48.818;9.526;2023-02-28T07:11:48;10.33;;;9.40;;
12038;SDS011;6080;48.818;9.526;2023-02-28T07:14:14;11.63;;;10.60;;
12038;SDS011;6080;48.818;9.526;2023-02-28T07:16:39;9.73;;;8.93;;
12038;SDS011;6080;48.818;9.526;2023-02-28T07:19:08;8.53;;;7.93;;
12038;SDS011;6080;48.818;9.526;2023-02-28T07:21:34;10.47;;;9.43;;
12038;SDS011;6080;48.818;9.526;2023-02-28T07:24:00;7.90;;;7.27;;
12038;SDS011;6080;48.818;9.526;2023-02-28T07:26:25;8.73;;;8.03;;
12038;SDS011;6080;48.818;9.526;2023-02-28T07:28:51;11.80;;;8.70;;
12038;SDS011;6080;48.818;9.526;2023-02-28T07:31:18;9.37;;;8.57;;
12038;SDS011;6080;48.818;9.526;2023-02-28T07:33:44;7.77;;;7.07;;
12038;SDS011;6080;48.818;9.526;2023-02-28T07:36:11;10.53;;;9.63;;
12038;SDS011;6080;48.818;9.526;2023-02-28T07:38:41;10.37;;;9.30;;
12038;SDS011;6080;48.818;9.526;2023-02-28T07:41:08;9.00;;;8.20;;
12038;SDS011;6080;48.818;9.526;2023-02-28T07:43:34;9.20;;;8.43;;
12038;SDS011;6080;48.818;9.526;2023-02-28T07:46:04;9.50;;;8.17;;
12038;SDS011;6080;48.818;9.526;2023-02-28T07:48:31;10.07;;;9.17;;
12038;SDS011;6080;48.818;9.526;2023-02-28T07:50:57;8.13;;;7.37;;
12038;SDS011;6080;48.818;9.526;2023-02-28T07:53:24;13.03;;;9.43;;
12038;SDS011;6080;48.818;9.526;2023-02-28T07:55:50;12.00;;;10.13;;
12038;SDS011;6080;48.818;9.526;2023-02-28T07:58:16;10.60;;;9.50;;
12038;SDS011;6080;48.818;9.526;2023-02-28T08:00:41;10.67;;;9.73;;
12038;SDS011;6080;48.818;9.526;2023-02-28T08:03:10;10.37;;;9.37;;
12038;SDS011;6080;48.818;9.526;2023-02-28T08:05:40;10.97;;;9.90;;
12038;SDS011;6080;48.818;9.526;2023-02-28T08:08:07;11.20;;;10.10;;
12038;SDS011;6080;48.818;9.526;2023-02-28T08:10:33;11.43;;;10.23;;
12038;SDS011;6080;48.818;9.526;2023-02-28T08:12:59;9.57;;;8.67;;
12038;SDS011;6080;48.818;9.526;2023-02-28T08:15:25;10.43;;;9.27;;
12038;SDS011;6080;48.818;9.526;2023-02-28T08:17:51;10.60;;;9.60;;
12038;SDS011;6080;48.818;9.526;2023-02-28T08:20:17;10.27;;;9.33;;
12038;SDS011;6080;48.818;9.526;2023-02-28T08:22:43;10.10;;;9.40;;
12038;SDS011;6080;48.818;9.526;2023-02-28T08:25:09;12.43;;;11.20;;
12038;SDS011;6080;48.818;9.526;2023-02-28T08:27:35;8.83;;;8.13;;
12038;SDS011;6080;48.818;9.526;2023-02-28T08:30:02;10.07;;;9.03;;
12038;SDS011;6080;48.818;9.526;2023-02-28T08:32:28;9.53;;;8.47;;
12038;SDS011;6080;48.818;9.526;2023-02-28T08:34:54;10.50;;;9.60;;
12038;SDS011;6080;48.818;9.526;2023-02-28T08:37:20;7.93;;;7.23;;
12038;SDS011;6080;48.818;9.526;2023-02-28T08:39:45;8.00;;;7.30;;
12038;SDS011;6080;48.818;9.526;2023-02-28T08:42:11;10.90;;;9.87;;
12038;SDS011;6080;48.818;9.526;2023-02-28T08:44:37;8.67;;;7.93;;
12038;SDS011;6080;48.818;9.526;2023-02-28T08:47:03;11.47;;;10.47;;
12038;SDS011;6080;48.818;9.526;2023-02-28T08:49:29;11.13;;;10.03;;
12038;SDS011;6080;48.818;9.526;2023-02-28T08:51:54;11.20;;;10.10;;
12038;SDS011;6080;48.818;9.526;2023-02-28T08:54:22;14.63;;;11.20;;
12038;SDS011;6080;48.818;9.526;2023-02-28T08:56:48;12.43;;;9.13;;
12038;SDS011;6080;48.818;9.526;2023-02-28T08:59:14;12.03;;;10.97;;
12038;SDS011;6080;48.818;9.526;2023-02-28T09:01:40;9.20;;;8.27;;
12038;SDS011;6080;48.818;9.526;2023-02-28T09:04:06;12.43;;;11.33;;
12038;SDS011;6080;48.818;9.526;2023-02-28T09:06:33;11.77;;;10.87;;
12038;SDS011;6080;48.818;9.526;2023-02-28T09:08:59;15.03;;;13.53;;
12038;SDS011;6080;48.818;9.526;2023-02-28T09:11:26;14.30;;;12.93;;
12038;SDS011;6080;48.818;9.526;2023-02-28T09:13:53;13.57;;;12.30;;
12038;SDS011;6080;48.818;9.526;2023-02-28T09:16:20;12.53;;;11.50;;
12038;SDS011;6080;48.818;9.526;2023-02-28T09:18:47;11.47;;;10.47;;
12038;SDS011;6080;48.818;9.526;2023-02-28T09:21:14;12.80;;;11.37;;
12038;SDS011;6080;48.818;9.526;2023-02-28T09:23:46;11.70;;;10.67;;
12038;SDS011;6080;48.818;9.526;2023-02-28T09:26:13;10.47;;;9.57;;
12038;SDS011;6080;48.818;9.526;2023-02-28T09:28:41;9.57;;;8.90;;
12038;SDS011;6080;48.818;9.526;2023-02-28T09:31:10;10.00;;;9.20;;
12038;SDS011;6080;48.818;9.526;2023-02-28T09:33:39;13.13;;;11.83;;
12038;SDS011;6080;48.818;9.526;2023-02-28T09:36:05;11.50;;;10.50;;
12038;SDS011;6080;48.818;9.526;2023-02-28T09:38:31;11.13;;;10.00;;
12038;SDS011;6080;48.818;9.526;2023-02-28T09:40:59;12.83;;;10.33;;
12038;SDS011;6080;48.818;9.526;2023-02-28T09:43:34;11.60;;;10.53;;
12038;SDS011;6080;48.818;9.526;2023-02-28T09:48:33;17.63;;;15.57;;
12038;SDS011;6080;48.818;9.526;2023-02-28T09:51:50;10.37;;;9.40;;
12038;SDS011;6080;48.818;9.526;2023-02-28T09:54:15;11.37;;;8.90;;
12038;SDS011;6080;48.818;9.526;2023-02-28T09:56:44;10.73;;;9.73;;
12038;SDS011;6080;48.818;9.526;2023-02-28T10:05:00;12.40;;;11.10;;
12038;SDS011;6080;48.818;9.526;2023-02-28T10:07:45;11.13;;;10.03;;
12038;SDS011;6080;48.818;9.526;2023-02-28T10:15:25;8.53;;;7.93;;
12038;SDS011;6080;48.818;9.526;2023-02-28T10:17:56;12.40;;;9.83;;
12038;SDS011;6080;48.818;9.526;2023-02-28T10:20:25;8.10;;;7.50;;
12038;SDS011;6080;48.818;9.526;2023-02-28T10:22:58;9.83;;;9.03;;
12038;SDS011;6080;48.818;9.526;2023-02-28T10:25:50;12.10;;;10.17;;
12038;SDS011;6080;48.818;9.526;2023-02-28T10:28:22;10.93;;;9.53;;
12038;SDS011;6080;48.818;9.526;2023-02-28T10:30:51;8.10;;;7.37;;
12038;SDS011;6080;48.818;9.526;2023-02-28T10:35:46;11.93;;;10.73;;
12038;SDS011;6080;48.818;9.526;2023-02-28T10:38:15;12.33;;;11.03;;
12038;SDS011;6080;48.818;9.526;2023-02-28T10:40:46;11.03;;;9.93;;
12038;SDS011;6080;48.818;9.526;2023-02-28T10:45:38;11.63;;;10.43;;
12038;SDS011;6080;48.818;9.526;2023-02-28T10:48:05;12.70;;;10.70;;
12038;SDS011;6080;48.818;9.526;2023-02-28T10:50:52;14.53;;;10.53;;
12038;SDS011;6080;48.818;9.526;2023-02-28T11:01:43;10.37;;;9.40;;
12038;SDS011;6080;48.818;9.526;2023-02-28T11:04:31;9.43;;;8.60;;
12038;SDS011;6080;48.818;9.526;2023-02-28T11:07:04;12.40;;;11.10;;
12038;SDS011;6080;48.818;9.526;2023-02-28T11:09:35;11.23;;;9.10;;
12038;SDS011;6080;48.818;9.526;2023-02-28T11:12:06;9.60;;;8.70;;
12038;SDS011;6080;48.818;9.526;2023-02-28T11:14:47;10.10;;;9.13;;
12038;SDS011;6080;48.818;9.526;2023-02-28T11:17:21;11.57;;;10.03;;
12038;SDS011;6080;48.818;9.526;2023-02-28T11:19:57;12.00;;;10.43;;
12038;SDS011;6080;48.818;9.526;2023-02-28T11:22:29;11.63;;;10.43;;
12038;SDS011;6080;48.818;9.526;2023-02-28T11:25:02;10.30;;;9.50;;
12038;SDS011;6080;48.818;9.526;2023-02-28T11:29:59;16.27;;;11.63;;
12038;SDS011;6080;48.818;9.526;2023-02-28T11:32:28;11.70;;;10.60;;
12038;SDS011;6080;48.818;9.526;2023-02-28T11:37:37;10.23;;;9.27;;
12038;SDS011;6080;48.818;9.526;2023-02-28T11:46:02;13.30;;;9.87;;
12038;SDS011;6080;48.818;9.526;2023-02-28T11:51:47;8.37;;;7.70;;
12038;SDS011;6080;48.818;9.526;2023-02-28T12:08:55;9.83;;;8.83;;
12038;SDS011;6080;48.818;9.526;2023-02-28T12:31:53;12.70;;;10.00;;
12038;SDS011;6080;48.818;9.526;2023-02-28T12:34:49;10.90;;;9.90;;
12038;SDS011;6080;48.818;9.526;2023-02-28T12:37:22;11.97;;;10.63;;
12038;SDS011;6080;48.818;9.526;2023-02-28T12:40:12;11.13;;;9.80;;
12038;SDS011;6080;48.818;9.526;2023-02-28T12:42:45;9.27;;;8.37;;
12038;SDS011;6080;48.818;9.526;2023-02-28T12:45:18;8.73;;;7.93;;
12038;SDS011;6080;48.818;9.526;2023-02-28T12:47:48;9.57;;;7.80;;
12038;SDS011;6080;48.818;9.526;2023-02-28T12:50:19;7.70;;;7.10;;
12038;SDS011;6080;48.818;9.526;2023-02-28T12:52:58;8.57;;;7.77;;
12038;SDS011;6080;48.818;9.526;2023-02-28T13:06:22;8.03;;;7.27;;
12038;SDS011;6080;48.818;9.526;2023-02-28T13:09:14;8.40;;;7.60;;
12038;SDS011;6080;48.818;9.526;2023-02-28T13:11:43;10.97;;;9.40;;
12038;SDS011;6080;48.818;9.526;2023-02-28T13:14:29;10.00;;;9.03;;
12038;SDS011;6080;48.818;9.526;2023-02-28T13:17:03;10.27;;;8.77;;
12038;SDS011;6080;48.818;9.526;2023-02-28T13:19:38;9.50;;;8.33;;
12038;SDS011;6080;48.818;9.526;2023-02-28T13:25:50;11.00;;;9.90;;
12038;SDS011;6080;48.818;9.526;2023-02-28T13:27:59;9.40;;;8.53;;
12038;SDS011;6080;48.818;9.526;2023-02-28T13:33:25;8.27;;;7.53;;
12038;SDS011;6080;48.818;9.526;2023-02-28T13:36:07;8.80;;;8.00;;
12038;SDS011;6080;48.818;9.526;2023-02-28T13:38:38;8.07;;;7.47;;
12038;SDS011;6080;48.818;9.526;2023-02-28T14:02:58;9.00;;;8.27;;
12038;SDS011;6080;48.818;9.526;2023-02-28T14:05:48;8.77;;;7.97;;
12038;SDS011;6080;48.818;9.526;2023-02-28T14:11:30;11.93;;;10.70;;
12038;SDS011;6080;48.818;9.526;2023-02-28T14:13:58;8.87;;;7.83;;
12038;SDS011;6080;48.818;9.526;2023-02-28T14:16:25;10.00;;;9.07;;
12038;SDS011;6080;48.818;9.526;2023-02-28T14:18:56;8.43;;;7.73;;
12038;SDS011;6080;48.818;9.526;2023-02-28T14:21:34;8.07;;;7.37;;
12038;SDS011;6080;48.818;9.526;2023-02-28T14:35:28;8.60;;;7.80;;
12038;SDS011;6080;48.818;9.526;2023-02-28T14:38:20;11.17;;;10.10;;
12038;SDS011;6080;48.818;9.526;2023-02-28T14:40:50;10.17;;;9.17;;
12038;SDS011;6080;48.818;9.526;2023-02-28T14:43:20;11.77;;;10.53;;
12038;SDS011;6080;48.818;9.526;2023-02-28T14:45:57;9.87;;;8.87;;
12038;SDS011;6080;48.818;9.526;2023-02-28T14:48:25;9.17;;;8.10;;
12038;SDS011;6080;48.818;9.526;2023-02-28T14:50:53;9.83;;;8.53;;
12038;SDS011;6080;48.818;9.526;2023-02-28T14:53:22;11.80;;;10.80;;
12038;SDS011;6080;48.818;9.526;2023-02-28T14:55:50;8.70;;;7.83;;
12038;SDS011;6080;48.818;9.526;2023-02-28T14:58:25;12.20;;;10.87;;
12038;SDS011;6080;48.818;9.526;2023-02-28T15:00:53;14.67;;;12.40;;
12038;SDS011;6080;48.818;9.526;2023-02-28T15:03:27;12.70;;;11.50;;
12038;SDS011;6080;48.818;9.526;2023-02-28T15:06:06;8.57;;;7.87;;
12038;SDS011;6080;48.818;9.526;2023-02-28T15:08:39;8.60;;;7.87;;
12038;SDS011;6080;48.818;9.526;2023-02-28T15:11:05;11.07;;;10.03;;
12038;SDS011;6080;48.818;9.526;2023-02-28T15:13:41;10.17;;;9.17;;
12038;SDS011;6080;48.818;9.526;2023-02-28T15:16:11;11.13;;;9.97;;
12038;SDS011;6080;48.818;9.526;2023-02-28T15:21:23;10.37;;;9.37;;
12038;SDS011;6080;48.818;9.526;2023-02-28T15:26:53;10.17;;;9.33;;
12038;SDS011;6080;48.818;9.526;2023-02-28T15:29:23;9.97;;;9.07;;
12038;SDS011;6080;48.818;9.526;2023-02-28T15:31:56;11.30;;;10.20;;
12038;SDS011;6080;48.818;9.526;2023-02-28T15:34:39;10.63;;;9.70;;
12038;SDS011;6080;48.818;9.526;2023-02-28T15:37:52;9.83;;;9.00;;
12038;SDS011;6080;48.818;9.526;2023-02-28T15:40:04;9.23;;;8.50;;
12038;SDS011;6080;48.818;9.526;2023-02-28T15:42:36;10.77;;;9.77;;
12038;SDS011;6080;48.818;9.526;2023-02-28T15:45:02;13.23;;;11.73;;
12038;SDS011;6080;48.818;9.526;2023-02-28T15:47:29;12.57;;;11.10;;
12038;SDS011;6080;48.818;9.526;2023-02-28T15:50:08;12.27;;;10.97;;
12038;SDS011;6080;48.818;9.526;2023-02-28T15:52:39;12.57;;;11.10;;
12038;SDS011;6080;48.818;9.526;2023-02-28T15:55:20;13.50;;;11.57;;
12038;SDS011;6080;48.818;9.526;2023-02-28T15:57:48;13.53;;;12.13;;
12038;SDS011;6080;48.818;9.526;2023-02-28T16:00:21;13.33;;;11.23;;
12038;SDS011;6080;48.818;9.526;2023-02-28T16:02:48;8.77;;;8.00;;
12038;SDS011;6080;48.818;9.526;2023-02-28T16:05:19;11.43;;;9.40;;
12038;SDS011;6080;48.818;9.526;2023-02-28T16:07:46;10.87;;;9.13;;
12038;SDS011;6080;48.818;9.526;2023-02-28T16:10:14;9.90;;;9.07;;
12038;SDS011;6080;48.818;9.526;2023-02-28T16:12:40;11.73;;;10.57;;
12038;SDS011;6080;48.818;9.526;2023-02-28T16:15:28;9.37;;;8.20;;
12038;SDS011;6080;48.818;9.526;2023-02-28T16:17:54;9.43;;;8.53;;
12038;SDS011;6080;48.818;9.526;2023-02-28T16:20:25;11.90;;;10.07;;
12038;SDS011;6080;48.818;9.526;2023-02-28T16:22:53;13.43;;;11.43;;
12038;SDS011;6080;48.818;9.526;2023-02-28T16:25:20;14.07;;;10.53;;
12038;SDS011;6080;48.818;9.526;2023-02-28T16:27:50;11.73;;;10.00;;
12038;SDS011;6080;48.818;9.526;2023-02-28T16:30:26;12.23;;;10.10;;
12038;SDS011;6080;48.818;9.526;2023-02-28T16:32:56;13.33;;;10.20;;
12038;SDS011;6080;48.818;9.526;2023-02-28T16:35:23;12.57;;;11.03;;
12038;SDS011;6080;48.818;9.526;2023-02-28T16:37:50;12.07;;;10.40;;
12038;SDS011;6080;48.818;9.526;2023-02-28T16:40:21;14.20;;;11.20;;
12038;SDS011;6080;48.818;9.526;2023-02-28T16:42:49;12.20;;;11.10;;
12038;SDS011;6080;48.818;9.526;2023-02-28T16:45:23;13.73;;;12.27;;
12038;SDS011;6080;48.818;9.526;2023-02-28T16:47:51;13.20;;;11.20;;
12038;SDS011;6080;48.818;9.526;2023-02-28T16:50:19;13.27;;;11.87;;
12038;SDS011;6080;48.818;9.526;2023-02-28T16:52:46;15.70;;;13.47;;
12038;SDS011;6080;48.818;9.526;2023-02-28T16:55:13;20.80;;;17.40;;
12038;SDS011;6080;48.818;9.526;2023-02-28T16:57:42;25.17;;;19.77;;
12038;SDS011;6080;48.818;9.526;2023-02-28T17:00:12;17.23;;;13.07;;
12038;SDS011;6080;48.818;9.526;2023-02-28T17:02:39;14.90;;;13.07;;
12038;SDS011;6080;48.818;9.526;2023-02-28T17:05:05;17.17;;;14.20;;
12038;SDS011;6080;48.818;9.526;2023-02-28T17:07:31;16.13;;;13.83;;
12038;SDS011;6080;48.818;9.526;2023-02-28T17:09:59;16.27;;;14.17;;
12038;SDS011;6080;48.818;9.526;2023-02-28T17:12:33;15.53;;;13.33;;
12038;SDS011;6080;48.818;9.526;2023-02-28T17:14:59;17.83;;;14.27;;
12038;SDS011;6080;48.818;9.526;2023-02-28T17:17:25;20.60;;;14.33;;
12038;SDS011;6080;48.818;9.526;2023-02-28T17:19:51;17.67;;;14.10;;
12038;SDS011;6080;48.818;9.526;2023-02-28T17:22:16;16.43;;;13.50;;
12038;SDS011;6080;48.818;9.526;2023-02-28T17:24:42;13.87;;;11.90;;
12038;SDS011;6080;48.818;9.526;2023-02-28T17:27:13;18.30;;;14.17;;
12038;SDS011;6080;48.818;9.526;2023-02-28T17:29:39;18.27;;;14.93;;
12038;SDS011;6080;48.818;9.526;2023-02-28T17:32:04;19.80;;;12.00;;
12038;SDS011;6080;48.818;9.526;2023-02-28T17:34:30;14.10;;;11.97;;
12038;SDS011;6080;48.818;9.526;2023-02-28T17:36:56;14.13;;;12.60;;
12038;SDS011;6080;48.818;9.526;2023-02-28T17:39:22;17.67;;;12.77;;
12038;SDS011;6080;48.818;9.526;2023-02-28T17:41:54;14.30;;;12.80;;
12038;SDS011;6080;48.818;9.526;2023-02-28T17:44:23;17.63;;;12.50;;
12038;SDS011;6080;48.818;9.526;2023-02-28T17:46:50;14.97;;;13.37;;
12038;SDS011;6080;48.818;9.526;2023-02-28T17:49:17;13.90;;;12.40;;
12038;SDS011;6080;48.818;9.526;2023-02-28T17:51:44;15.93;;;13.67;;
12038;SDS011;6080;48.818;9.526;2023-02-28T17:54:10;16.93;;;12.83;;
12038;SDS011;6080;48.818;9.526;2023-02-28T17:56:35;21.00;;;13.93;;
12038;SDS011;6080;48.818;9.526;2023-02-28T17:59:01;19.00;;;13.87;;
12038;SDS011;6080;48.818;9.526;2023-02-28T18:01:27;18.60;;;14.57;;
12038;SDS011;6080;48.818;9.526;2023-02-28T18:03:54;16.27;;;14.40;;
12038;SDS011;6080;48.818;9.526;2023-02-28T18:06:23;20.40;;;17.47;;
12038;SDS011;6080;48.818;9.526;2023-02-28T18:08:50;16.97;;;15.13;;
12038;SDS011;6080;48.818;9.526;2023-02-28T18:11:17;18.17;;;16.30;;
12038;SDS011;6080;48.818;9.526;2023-02-28T18:13:45;17.47;;;15.63;;
12038;SDS011;6080;48.818;9.526;2023-02-28T18:16:15;17.50;;;15.33;;
12038;SDS011;6080;48.818;9.526;2023-02-28T18:18:48;18.67;;;16.70;;
12038;SDS011;6080;48.818;9.526;2023-02-28T18:21:16;17.27;;;14.83;;
12038;SDS011;6080;48.818;9.526;2023-02-28T18:23:42;15.47;;;13.87;;
12038;SDS011;6080;48.818;9.526;2023-02-28T18:26:16;15.40;;;13.80;;
12038;SDS011;6080;48.818;9.526;2023-02-28T18:28:43;17.20;;;15.23;;
12038;SDS011;6080;48.818;9.526;2023-02-28T18:31:14;18.63;;;13.90;;
12038;SDS011;6080;48.818;9.526;2023-02-28T18:33:51;17.03;;;15.23;;
12038;SDS011;6080;48.818;9.526;2023-02-28T18:36:17;20.40;;;18.13;;
12038;SDS011;6080;48.818;9.526;2023-02-28T18:38:45;20.50;;;17.33;;
12038;SDS011;6080;48.818;9.526;2023-02-28T18:41:12;21.83;;;19.43;;
12038;SDS011;6080;48.818;9.526;2023-02-28T18:43:38;21.97;;;19.00;;
12038;SDS011;6080;48.818;9.526;2023-02-28T18:46:04;21.33;;;19.13;;
12038;SDS011;6080;48.818;9.526;2023-02-28T18:48:32;20.40;;;18.17;;
12038;SDS011;6080;48.818;9.526;2023-02-28T18:50:58;22.40;;;17.53;;
12038;SDS011;6080;48.818;9.526;2023-02-28T18:53:29;18.80;;;16.20;;
12038;SDS011;6080;48.818;9.526;2023-02-28T18:55:59;19.03;;;15.03;;
12038;SDS011;6080;48.818;9.526;2023-02-28T18:58:25;20.50;;;14.40;;
12038;SDS011;6080;48.818;9.526;2023-02-28T19:00:52;20.60;;;15.10;;
12038;SDS011;6080;48.818;9.526;2023-02-28T19:03:18;16.50;;;14.37;;
12038;SDS011;6080;48.818;9.526;2023-02-28T19:05:44;21.87;;;15.67;;
12038;SDS011;6080;48.818;9.526;2023-02-28T19:08:11;18.73;;;14.37;;
12038;SDS011;6080;48.818;9.526;2023-02-28T19:10:40;22.50;;;15.17;;
12038;SDS011;6080;48.818;9.526;2023-02-28T19:13:07;20.03;;;14.53;;
12038;SDS011;6080;48.818;9.526;2023-02-28T19:15:33;18.93;;;14.73;;
12038;SDS011;6080;48.818;9.526;2023-02-28T19:17:59;17.80;;;15.40;;
12038;SDS011;6080;48.818;9.526;2023-02-28T19:20:25;19.07;;;16.13;;
12038;SDS011;6080;48.818;9.526;2023-02-28T19:22:51;17.80;;;15.30;;
12038;SDS011;6080;48.818;9.526;2023-02-28T19:25:17;17.57;;;15.53;;
12038;SDS011;6080;48.818;9.526;2023-02-28T19:27:43;20.03;;;15.30;;
12038;SDS011;6080;48.818;9.526;2023-02-28T19:30:09;18.83;;;15.50;;
12038;SDS011;6080;48.818;9.526;2023-02-28T19:32:35;17.57;;;14.27;;
12038;SDS011;6080;48.818;9.526;2023-02-28T19:35:02;21.10;;;15.80;;
12038;SDS011;6080;48.818;9.526;2023-02-28T19:37:29;16.53;;;14.90;;
12038;SDS011;6080;48.818;9.526;2023-02-28T19:39:54;16.97;;;13.63;;
12038;SDS011;6080;48.818;9.526;2023-02-28T19:42:21;23.77;;;16.23;;
12038;SDS011;6080;48.818;9.526;2023-02-28T19:44:47;22.13;;;15.93;;
12038;SDS011;6080;48.818;9.526;2023-02-28T19:47:13;21.47;;;15.70;;
12038;SDS011;6080;48.818;9.526;2023-02-28T19:49:39;20.53;;;15.40;;
12038;SDS011;6080;48.818;9.526;2023-02-28T19:52:05;21.37;;;15.23;;
12038;SDS011;6080;48.818;9.526;2023-02-28T19:54:30;18.43;;;14.70;;
12038;SDS011;6080;48.818;9.526;2023-02-28T19:56:56;19.40;;;16.07;;
12038;SDS011;6080;48.818;9.526;2023-02-28T19:59:26;16.93;;;14.33;;
12038;SDS011;6080;48.818;9.526;2023-02-28T20:01:53;19.80;;;15.70;;
12038;SDS011;6080;48.818;9.526;2023-02-28T20:04:23;18.03;;;14.97;;
12038;SDS011;6080;48.818;9.526;2023-02-28T20:06:50;17.47;;;14.90;;
12038;SDS011;6080;48.818;9.526;2023-02-28T20:09:16;20.80;;;15.50;;
12038;SDS011;6080;48.818;9.526;2023-02-28T20:11:43;20.57;;;15.37;;
12038;SDS011;6080;48.818;9.526;2023-02-28T20:14:10;18.03;;;14.77;;
12038;SDS011;6080;48.818;9.526;2023-02-28T20:16:38;19.23;;;14.87;;
12038;SDS011;6080;48.818;9.526;2023-02-28T20:19:05;24.37;;;15.53;;
12038;SDS011;6080;48.818;9.526;2023-02-28T20:21:31;22.10;;;16.00;;
12038;SDS011;6080;48.818;9.526;2023-02-28T20:23:56;22.23;;;17.17;;
12038;SDS011;6080;48.818;9.526;2023-02-28T20:26:22;19.70;;;15.33;;
12038;SDS011;6080;48.818;9.526;2023-02-28T20:28:48;27.47;;;19.20;;
12038;SDS011;6080;48.818;9.526;2023-02-28T20:31:16;22.23;;;16.43;;
12038;SDS011;6080;48.818;9.526;2023-02-28T20:33:42;19.97;;;15.63;;
12038;SDS011;6080;48.818;9.526;2023-02-28T20:36:08;25.53;;;18.30;;
12038;SDS011;6080;48.818;9.526;2023-02-28T20:38:36;21.13;;;15.53;;
12038;SDS011;6080;48.818;9.526;2023-02-28T20:41:02;18.00;;;14.77;;
12038;SDS011;6080;48.818;9.526;2023-02-28T20:43:28;21.90;;;16.87;;
12038;SDS011;6080;48.818;9.526;2023-02-28T20:45:55;22.23;;;16.13;;
12038;SDS011;6080;48.818;9.526;2023-02-28T20:48:29;19.30;;;15.00;;
12038;SDS011;6080;48.818;9.526;2023-02-28T20:50:57;20.43;;;16.23;;
12038;SDS011;6080;48.818;9.526;2023-02-28T20:53:24;19.33;;;15.90;;
12038;SDS011;6080;48.818;9.526;2023-02-28T20:55:57;22.03;;;16.23;;
12038;SDS011;6080;48.818;9.526;2023-02-28T20:58:24;21.10;;;16.03;;
12038;SDS011;6080;48.818;9.526;2023-02-28T21:00:58;21.67;;;16.03;;
12038;SDS011;6080;48.818;9.526;2023-02-28T21:03:26;21.80;;;16.50;;
12038;SDS011;6080;48.818;9.526;2023-02-28T21:05:57;19.37;;;15.37;;
12038;SDS011;6080;48.818;9.526;2023-02-28T21:08:26;22.97;;;17.07;;
12038;SDS011;6080;48.818;9.526;2023-02-28T21:10:52;22.57;;;16.97;;